createdAt,value
2022-08-26T00:00:28.682Z,75.80
2022-08-26T00:01:33.278Z,75.31
2022-08-26T00:02:37.605Z,75.23
2022-08-26T00:03:41.339Z,74.98
2022-08-26T00:04:44.146Z,75.03
2022-08-26T00:05:48.528Z,75.15
2022-08-26T00:06:51.938Z,74.07
2022-08-26T00:07:54.952Z,74.12
2022-08-26T00:08:58.059Z,74.70
2022-08-26T00:10:00.891Z,75.17
2022-08-26T00:11:08.281Z,75.42
2022-08-26T00:12:12.182Z,76.18
2022-08-26T00:13:15.755Z,76.76
2022-08-26T00:14:30.781Z,76.33
2022-08-26T00:15:34.075Z,76.54
2022-08-26T00:16:37.812Z,75.67
2022-08-26T00:17:44.056Z,75.91
2022-08-26T00:18:47.004Z,75.70
2022-08-26T00:19:49.971Z,76.62
2022-08-26T00:20:55.696Z,76.93
2022-08-26T00:21:58.631Z,77.18
2022-08-26T00:23:02.972Z,77.34
2022-08-26T00:24:06.478Z,77.43
2022-08-26T00:25:10.534Z,77.80
2022-08-26T00:26:14.052Z,77.25
2022-08-26T00:27:17.161Z,78.95
2022-08-26T00:28:20.669Z,78.59
2022-08-26T00:29:24.529Z,78.54
2022-08-26T00:30:29.733Z,78.36
2022-08-26T00:31:33.754Z,78.36
2022-08-26T00:32:43.995Z,78.30
2022-08-26T00:33:49.560Z,77.81
2022-08-26T00:34:52.674Z,78.64
2022-08-26T00:35:55.599Z,78.65
2022-08-26T00:36:58.877Z,79.37
2022-08-26T00:38:02.758Z,79.22
2022-08-26T00:39:07.832Z,78.95
2022-08-26T00:40:20.709Z,78.49
2022-08-26T00:41:23.905Z,78.46
2022-08-26T00:42:27.974Z,78.74
2022-08-26T00:43:47.415Z,78.63
2022-08-26T00:44:51.806Z,78.88
2022-08-26T00:46:22.007Z,78.30
2022-08-26T00:47:34.434Z,78.51
2022-08-26T00:48:40.253Z,78.91
2022-08-26T00:49:47.837Z,78.82
2022-08-26T00:50:56.123Z,79.46
2022-08-26T00:52:03.661Z,79.44
2022-08-26T00:53:24.104Z,79.07
2022-08-26T00:54:34.029Z,79.06
2022-08-26T00:55:41.018Z,79.10
2022-08-26T00:56:53.307Z,78.64
2022-08-26T00:57:56.386Z,78.46
2022-08-26T00:59:02.923Z,78.65
2022-08-26T01:00:12.926Z,79.14
2022-08-26T01:01:22.903Z,79.26
2022-08-26T01:02:26.601Z,79.54
2022-08-26T01:03:34.971Z,78.93
2022-08-26T01:04:39.379Z,78.75
2022-08-26T01:05:42.775Z,78.69
2022-08-26T01:06:48.810Z,78.20
2022-08-26T01:07:52.264Z,78.31
2022-08-26T01:08:55.281Z,78.45
2022-08-26T01:10:00.596Z,78.30
2022-08-26T01:11:06.081Z,77.88
2022-08-26T01:12:09.927Z,77.86
2022-08-26T01:13:14.290Z,77.68
2022-08-26T01:14:20.271Z,77.46
2022-08-26T01:15:28.122Z,76.87
2022-08-26T01:16:36.756Z,76.65
2022-08-26T01:17:40.058Z,76.04
2022-08-26T01:18:44.593Z,75.55
2022-08-26T01:19:53.271Z,75.10
2022-08-26T01:21:14.787Z,75.32
2022-08-26T01:22:26.733Z,75.25
2022-08-26T01:23:36.454Z,74.96
2022-08-26T01:24:41.355Z,74.76
2022-08-26T01:25:49.239Z,75.07
2022-08-26T01:26:53.152Z,75.18
2022-08-26T01:27:58.864Z,74.86
2022-08-26T01:29:04.654Z,74.87
2022-08-26T01:30:08.191Z,75.10
2022-08-26T01:31:15.310Z,75.33
2022-08-26T01:32:23.242Z,75.90
2022-08-26T01:33:42.379Z,76.20
2022-08-26T01:34:47.072Z,76.20
2022-08-26T01:35:50.564Z,75.72
2022-08-26T01:37:15.600Z,75.18
2022-08-26T01:38:19.312Z,75.00
2022-08-26T01:39:22.315Z,74.60
2022-08-26T01:40:32.229Z,75.03
2022-08-26T01:41:36.707Z,74.86
2022-08-26T01:42:41.410Z,74.44
2022-08-26T01:43:47.026Z,74.59
2022-08-26T01:45:04.057Z,74.47
2022-08-26T01:46:07.598Z,74.54
2022-08-26T01:47:17.997Z,74.19
2022-08-26T01:48:26.468Z,74.76
2022-08-26T01:49:29.903Z,74.86
2022-08-26T01:50:40.923Z,74.26
2022-08-26T01:51:48.543Z,73.96
2022-08-26T01:52:54.788Z,74.24
2022-08-26T01:53:58.689Z,74.40
2022-08-26T01:55:02.881Z,75.00
2022-08-26T01:56:07.391Z,74.73
2022-08-26T01:57:10.778Z,74.84
2022-08-26T01:58:18.827Z,75.26
2022-08-26T01:59:24.778Z,75.11
2022-08-26T02:00:27.783Z,74.94
2022-08-26T02:01:31.850Z,74.44
2022-08-26T02:02:34.925Z,74.90
2022-08-26T02:03:55.982Z,75.07
2022-08-26T02:05:04.680Z,75.50
2022-08-26T02:06:09.361Z,74.83
2022-08-26T02:07:13.232Z,74.82
2022-08-26T02:08:24.903Z,74.72
2022-08-26T02:09:28.611Z,75.97
2022-08-26T02:10:33.884Z,75.26
2022-08-26T02:11:38.981Z,75.68
2022-08-26T02:12:42.759Z,75.85
2022-08-26T02:14:07.780Z,75.98
2022-08-26T02:15:13.106Z,75.75
2022-08-26T02:16:19.246Z,75.24
2022-08-26T02:17:35.362Z,73.72
2022-08-26T02:18:42.024Z,73.73
2022-08-26T02:19:48.809Z,72.92
2022-08-26T02:20:54.738Z,72.48
2022-08-26T02:22:05.237Z,73.20
2022-08-26T02:23:09.098Z,72.52
2022-08-26T02:24:17.294Z,72.21
2022-08-26T02:25:52.790Z,71.73
2022-08-26T02:26:57.945Z,71.38
2022-08-26T02:28:01.562Z,71.67
2022-08-26T02:29:13.875Z,71.78
2022-08-26T02:30:28.502Z,71.13
2022-08-26T02:31:31.630Z,71.28
2022-08-26T02:32:35.177Z,71.74
2022-08-26T02:33:38.453Z,72.64
2022-08-26T02:34:52.963Z,71.91
2022-08-26T02:35:55.845Z,72.00
2022-08-26T02:37:05.685Z,72.59
2022-08-26T02:38:10.060Z,71.49
2022-08-26T02:39:16.952Z,71.64
2022-08-26T02:40:29.193Z,71.34
2022-08-26T02:41:32.489Z,71.62
2022-08-26T02:42:36.053Z,70.11
2022-08-26T02:43:40.550Z,69.98
2022-08-26T02:44:43.485Z,70.44
2022-08-26T02:45:47.450Z,70.74
2022-08-26T02:46:51.052Z,70.45
2022-08-26T02:47:59.629Z,70.01
2022-08-26T02:49:02.619Z,70.59
2022-08-26T02:50:06.981Z,70.54
2022-08-26T02:51:11.643Z,69.66
2022-08-26T02:52:16.460Z,69.93
2022-08-26T02:53:25.053Z,69.22
2022-08-26T02:54:28.530Z,69.54
2022-08-26T02:55:32.356Z,68.79
2022-08-26T02:56:35.819Z,68.44
2022-08-26T02:57:38.736Z,68.58
2022-08-26T02:58:41.558Z,67.53
2022-08-26T02:59:44.978Z,67.37
2022-08-26T03:00:49.296Z,66.42
2022-08-26T03:01:56.407Z,66.66
2022-08-26T03:02:59.971Z,66.75
2022-08-26T03:04:04.650Z,67.12
2022-08-26T03:05:09.175Z,66.33
2022-08-26T03:06:12.102Z,67.25
2022-08-26T03:07:15.165Z,66.30
2022-08-26T03:08:19.069Z,65.86
2022-08-26T03:09:22.962Z,66.15
2022-08-26T03:10:26.582Z,65.96
2022-08-26T03:11:33.132Z,67.03
2022-08-26T03:12:37.309Z,66.33
2022-08-26T03:13:40.452Z,67.26
2022-08-26T03:14:44.411Z,66.22
2022-08-26T03:15:47.710Z,66.70
2022-08-26T03:16:54.400Z,65.99
2022-08-26T03:17:57.239Z,65.86
2022-08-26T03:19:01.158Z,65.91
2022-08-26T03:20:09.945Z,66.60
2022-08-26T03:21:15.479Z,66.38
2022-08-26T03:22:18.303Z,66.38
2022-08-26T03:23:23.754Z,66.11
2022-08-26T03:24:27.089Z,66.10
2022-08-26T03:25:30.220Z,65.77
2022-08-26T03:26:33.228Z,66.42
2022-08-26T03:27:36.228Z,66.45
2022-08-26T03:28:59.805Z,65.68
2022-08-26T03:30:21.032Z,66.25
2022-08-26T03:31:24.544Z,65.48
2022-08-26T03:32:27.602Z,65.46
2022-08-26T03:33:35.021Z,66.27
2022-08-26T03:34:38.161Z,65.54
2022-08-26T03:35:43.746Z,66.18
2022-08-26T03:36:50.445Z,66.73
2022-08-26T03:37:54.014Z,66.26
2022-08-26T03:38:57.320Z,65.87
2022-08-26T03:40:01.362Z,66.33
2022-08-26T03:41:04.257Z,65.40
2022-08-26T03:42:10.801Z,65.48
2022-08-26T03:43:16.289Z,66.05
2022-08-26T03:44:19.369Z,66.12
2022-08-26T03:45:26.037Z,65.68
2022-08-26T03:46:29.347Z,65.97
2022-08-26T03:47:32.855Z,65.46
2022-08-26T03:48:36.089Z,66.20
2022-08-26T03:49:38.898Z,66.50
2022-08-26T03:50:42.616Z,65.30
2022-08-26T03:51:45.958Z,66.06
2022-08-26T03:52:50.051Z,65.35
2022-08-26T03:53:58.944Z,65.78
2022-08-26T03:55:01.820Z,65.42
2022-08-26T03:56:06.836Z,65.56
2022-08-26T03:57:09.639Z,65.50
2022-08-26T03:58:12.471Z,65.75
2022-08-26T03:59:15.306Z,65.21
2022-08-26T04:00:19.942Z,65.76
2022-08-26T04:01:22.710Z,65.45
2022-08-26T04:02:30.179Z,65.15
2022-08-26T04:03:52.134Z,64.90
2022-08-26T04:04:55.033Z,65.41
2022-08-26T04:06:01.972Z,65.16
2022-08-26T04:07:05.338Z,65.28
2022-08-26T04:08:08.139Z,65.42
2022-08-26T04:09:19.935Z,65.81
2022-08-26T04:10:29.031Z,65.22
2022-08-26T04:11:34.456Z,64.90
2022-08-26T04:12:39.191Z,65.13
2022-08-26T04:13:42.210Z,64.98
2022-08-26T04:14:45.162Z,65.60
2022-08-26T04:15:48.142Z,65.43
2022-08-26T04:16:52.123Z,64.22
2022-08-26T04:17:56.082Z,64.19
2022-08-26T04:19:00.997Z,64.21
2022-08-26T04:20:06.659Z,64.01
2022-08-26T04:21:10.167Z,63.91
2022-08-26T04:22:16.258Z,63.85
2022-08-26T04:23:27.710Z,64.34
2022-08-26T04:24:30.533Z,63.72
2022-08-26T04:25:33.450Z,63.92
2022-08-26T04:26:43.653Z,64.24
2022-08-26T04:27:46.720Z,63.43
2022-08-26T04:28:52.881Z,64.16
2022-08-26T04:29:55.753Z,63.84
2022-08-26T04:30:58.640Z,63.83
2022-08-26T04:32:03.380Z,63.87
2022-08-26T04:33:12.877Z,64.80
2022-08-26T04:34:17.817Z,64.97
2022-08-26T04:35:25.714Z,64.65
2022-08-26T04:36:29.381Z,64.97
2022-08-26T04:37:33.759Z,65.44
2022-08-26T04:38:36.836Z,65.26
2022-08-26T04:39:40.245Z,66.57
2022-08-26T04:40:46.909Z,67.11
2022-08-26T04:41:50.905Z,67.48
2022-08-26T04:42:54.447Z,69.25
2022-08-26T04:43:57.527Z,67.31
2022-08-26T04:45:00.526Z,67.82
2022-08-26T04:46:05.280Z,68.42
2022-08-26T04:47:08.343Z,68.84
2022-08-26T04:48:12.181Z,68.75
2022-08-26T04:49:19.859Z,68.67
2022-08-26T04:50:24.028Z,69.50
2022-08-26T04:51:28.276Z,69.10
2022-08-26T04:52:31.286Z,68.71
2022-08-26T04:53:34.329Z,70.23
2022-08-26T04:54:37.285Z,70.56
2022-08-26T04:55:42.704Z,69.51
2022-08-26T04:56:50.057Z,69.12
2022-08-26T04:57:53.895Z,69.18
2022-08-26T04:58:56.823Z,70.01
2022-08-26T04:59:59.845Z,70.43
2022-08-26T05:01:02.991Z,71.69
2022-08-26T05:02:07.675Z,71.28
2022-08-26T05:03:12.189Z,71.45
2022-08-26T05:04:18.833Z,71.95
2022-08-26T05:05:22.115Z,72.78
2022-08-26T05:06:25.849Z,72.77
2022-08-26T05:07:28.829Z,73.13
2022-08-26T05:08:31.743Z,72.81
2022-08-26T05:09:34.938Z,72.96
2022-08-26T05:10:43.503Z,73.98
2022-08-26T05:11:48.615Z,73.02
2022-08-26T05:12:55.006Z,70.95
2022-08-26T05:14:02.118Z,71.52
2022-08-26T05:15:06.354Z,72.20
2022-08-26T05:16:12.136Z,72.37
2022-08-26T05:17:15.286Z,72.69
2022-08-26T05:18:21.514Z,74.33
2022-08-26T05:19:25.776Z,73.59
2022-08-26T05:20:33.011Z,73.12
2022-08-26T05:21:36.200Z,72.70
2022-08-26T05:22:39.629Z,74.01
2022-08-26T05:23:43.375Z,73.02
2022-08-26T05:24:46.864Z,72.80
2022-08-26T05:25:55.842Z,71.98
2022-08-26T05:27:01.139Z,72.29
2022-08-26T05:28:04.805Z,71.82
2022-08-26T05:29:08.792Z,71.99
2022-08-26T05:30:12.222Z,72.33
2022-08-26T05:31:19.336Z,72.62
2022-08-26T05:32:22.287Z,74.18
2022-08-26T05:33:25.109Z,72.74
2022-08-26T05:34:30.357Z,74.48
2022-08-26T05:35:34.518Z,73.46
2022-08-26T05:36:37.919Z,72.48
2022-08-26T05:37:43.983Z,72.74
2022-08-26T05:38:47.163Z,73.50
2022-08-26T05:39:51.426Z,73.57
2022-08-26T05:40:54.762Z,73.57
2022-08-26T05:41:57.624Z,72.91
2022-08-26T05:43:00.578Z,72.50
2022-08-26T05:44:08.602Z,72.61
2022-08-26T05:45:13.384Z,71.89
2022-08-26T05:46:16.339Z,72.26
2022-08-26T05:47:19.219Z,71.90
2022-08-26T05:48:24.249Z,71.84
2022-08-26T05:49:27.480Z,71.33
2022-08-26T05:50:30.410Z,70.52
2022-08-26T05:51:33.902Z,71.87
2022-08-26T05:52:36.704Z,72.12
2022-08-26T05:53:43.760Z,72.29
2022-08-26T05:54:57.371Z,72.28
2022-08-26T05:56:00.532Z,72.26
2022-08-26T05:57:03.511Z,72.01
2022-08-26T05:58:06.876Z,72.29
2022-08-26T05:59:14.694Z,71.92
2022-08-26T06:00:17.762Z,71.91
2022-08-26T06:01:24.171Z,71.99
2022-08-26T06:02:27.103Z,71.82
2022-08-26T06:03:31.931Z,71.20
2022-08-26T06:04:36.021Z,71.27
2022-08-26T06:05:42.542Z,71.89
2022-08-26T06:06:48.008Z,71.70
2022-08-26T06:08:09.378Z,71.78
2022-08-26T06:09:12.548Z,71.55
2022-08-26T06:10:31.481Z,71.61
2022-08-26T06:11:35.099Z,71.53
2022-08-26T06:12:37.892Z,71.27
2022-08-26T06:13:41.353Z,70.47
2022-08-26T06:14:44.950Z,70.92
2022-08-26T06:15:56.169Z,69.95
2022-08-26T06:16:59.043Z,69.51
2022-08-26T06:18:01.832Z,69.62
2022-08-26T06:19:10.261Z,69.33
2022-08-26T06:20:14.048Z,69.32
2022-08-26T06:21:19.362Z,69.55
2022-08-26T06:22:41.101Z,69.66
2022-08-26T06:24:04.639Z,67.09
2022-08-26T06:25:26.791Z,67.59
2022-08-26T06:26:30.093Z,65.89
2022-08-26T06:27:34.756Z,65.00
2022-08-26T06:28:38.430Z,65.10
2022-08-26T06:29:41.943Z,65.63
2022-08-26T06:30:44.914Z,66.00
2022-08-26T06:31:47.992Z,66.89
2022-08-26T06:32:50.926Z,64.12
2022-08-26T06:33:56.731Z,65.99
2022-08-26T06:34:59.714Z,65.48
2022-08-26T06:36:05.214Z,65.73
2022-08-26T06:37:09.081Z,65.80
2022-08-26T06:38:12.267Z,66.56
2022-08-26T06:39:17.914Z,67.19
2022-08-26T06:40:23.051Z,66.53
2022-08-26T06:41:26.079Z,65.63
2022-08-26T06:42:28.980Z,64.51
2022-08-26T06:43:31.740Z,62.69
2022-08-26T06:44:36.042Z,64.42
2022-08-26T06:45:40.064Z,63.74
2022-08-26T06:46:44.728Z,61.55
2022-08-26T06:47:47.863Z,62.05
2022-08-26T06:48:54.440Z,61.44
2022-08-26T06:49:57.556Z,62.51
2022-08-26T06:51:22.309Z,61.20
2022-08-26T06:52:26.674Z,58.95
2022-08-26T06:53:29.576Z,55.85
2022-08-26T06:54:32.644Z,59.62
2022-08-26T06:55:43.627Z,58.61
2022-08-26T06:56:47.952Z,52.69
2022-08-26T06:57:50.968Z,53.12
2022-08-26T06:58:54.270Z,53.08
2022-08-26T06:59:58.910Z,50.88
2022-08-26T07:01:09.084Z,51.23
2022-08-26T07:02:15.336Z,51.83
2022-08-26T07:03:22.442Z,50.94
2022-08-26T07:04:27.956Z,52.22
2022-08-26T07:05:31.148Z,52.25
2022-08-26T07:06:40.038Z,50.14
2022-08-26T07:07:42.965Z,50.54
2022-08-26T07:08:47.464Z,49.69
2022-08-26T07:09:52.395Z,50.07
2022-08-26T07:10:55.930Z,51.36
2022-08-26T07:11:59.603Z,53.22
2022-08-26T07:13:02.552Z,50.50
2022-08-26T07:14:06.994Z,51.80
2022-08-26T07:15:10.550Z,50.02
2022-08-26T07:16:18.316Z,49.53
2022-08-26T07:17:21.218Z,51.94
2022-08-26T07:18:28.060Z,51.06
2022-08-26T07:19:31.902Z,49.24
2022-08-26T07:20:40.597Z,48.69
2022-08-26T07:21:45.974Z,48.21
2022-08-26T07:22:50.360Z,51.43
2022-08-26T07:23:58.707Z,51.62
2022-08-26T07:25:07.960Z,49.33
2022-08-26T07:26:16.545Z,49.19
2022-08-26T07:27:19.936Z,50.35
2022-08-26T07:28:23.939Z,49.23
2022-08-26T07:29:29.487Z,50.05
2022-08-26T07:30:32.435Z,49.11
2022-08-26T07:31:39.575Z,50.60
2022-08-26T07:32:45.882Z,50.27
2022-08-26T07:33:49.034Z,47.51
2022-08-26T07:34:54.312Z,47.43
2022-08-26T07:35:57.299Z,48.15
2022-08-26T07:37:00.726Z,47.86
2022-08-26T07:38:04.318Z,46.12
2022-08-26T07:39:08.043Z,49.11
2022-08-26T07:40:12.065Z,47.84
2022-08-26T07:41:17.760Z,44.74
2022-08-26T07:42:22.617Z,45.44
2022-08-26T07:43:27.036Z,46.56
2022-08-26T07:44:32.211Z,46.53
2022-08-26T07:45:35.179Z,48.00
2022-08-26T07:46:38.503Z,50.09
2022-08-26T07:47:41.639Z,49.24
2022-08-26T07:48:46.822Z,47.25
2022-08-26T07:49:52.873Z,48.14
2022-08-26T07:50:57.343Z,49.03
2022-08-26T07:52:01.208Z,50.07
2022-08-26T07:53:04.902Z,48.46
2022-08-26T07:54:07.969Z,47.96
2022-08-26T07:55:11.400Z,49.06
2022-08-26T07:56:14.464Z,48.29
2022-08-26T07:57:17.329Z,48.61
2022-08-26T07:58:21.987Z,45.40
2022-08-26T07:59:25.681Z,45.88
2022-08-26T08:00:29.825Z,45.58
2022-08-26T08:01:33.227Z,45.78
2022-08-26T08:02:37.129Z,46.63
2022-08-26T08:03:40.785Z,47.15
2022-08-26T08:04:44.169Z,47.37
2022-08-26T08:05:47.290Z,45.79
2022-08-26T08:06:50.506Z,46.92
2022-08-26T08:07:53.685Z,45.19
2022-08-26T08:09:16.491Z,46.46
2022-08-26T08:10:22.828Z,46.98
2022-08-26T08:11:31.421Z,46.77
2022-08-26T08:12:34.508Z,45.37
2022-08-26T08:13:38.599Z,45.60
2022-08-26T08:14:45.398Z,46.44
2022-08-26T08:15:48.273Z,46.47
2022-08-26T08:16:54.759Z,46.01
2022-08-26T08:18:00.699Z,46.24
2022-08-26T08:19:04.015Z,45.58
2022-08-26T08:20:08.943Z,45.74
2022-08-26T08:21:21.697Z,47.37
2022-08-26T08:22:25.662Z,46.34
2022-08-26T08:23:31.829Z,46.49
2022-08-26T08:24:35.525Z,45.93
2022-08-26T08:25:38.524Z,44.93
2022-08-26T08:26:41.974Z,45.30
2022-08-26T08:27:45.834Z,45.22
2022-08-26T08:28:48.842Z,44.96
2022-08-26T08:29:55.025Z,46.86
2022-08-26T08:30:58.427Z,45.70
2022-08-26T08:32:03.326Z,45.58
2022-08-26T08:33:07.822Z,44.03
2022-08-26T08:34:10.789Z,43.79
2022-08-26T08:35:17.574Z,43.89
2022-08-26T08:36:20.581Z,44.50
2022-08-26T08:37:23.731Z,44.27
2022-08-26T08:38:27.482Z,44.45
2022-08-26T08:39:32.444Z,45.14
2022-08-26T08:40:41.838Z,45.70
2022-08-26T08:41:59.661Z,45.05
2022-08-26T08:43:11.056Z,44.58
2022-08-26T08:44:20.443Z,45.47
2022-08-26T08:45:35.911Z,47.03
2022-08-26T08:46:42.646Z,44.44
2022-08-26T08:47:56.886Z,46.19
2022-08-26T08:49:00.365Z,46.00
2022-08-26T08:50:22.060Z,45.88
2022-08-26T08:51:40.393Z,46.21
2022-08-26T08:52:47.582Z,45.88
2022-08-26T08:53:54.605Z,42.83
2022-08-26T08:54:58.445Z,44.03
2022-08-26T08:56:24.512Z,44.85
2022-08-26T08:57:39.356Z,45.77
2022-08-26T08:59:16.502Z,44.99
2022-08-26T09:00:30.377Z,45.28
2022-08-26T09:01:45.964Z,45.55
2022-08-26T09:02:59.987Z,44.71
2022-08-26T09:04:25.260Z,45.35
2022-08-26T09:05:36.144Z,44.91
2022-08-26T09:06:41.084Z,44.11
2022-08-26T09:07:52.663Z,44.88
2022-08-26T09:08:57.594Z,43.88
2022-08-26T09:10:20.546Z,43.77
2022-08-26T09:11:23.712Z,43.82
2022-08-26T09:12:31.415Z,42.46
2022-08-26T09:13:34.509Z,42.65
2022-08-26T09:14:38.752Z,43.57
2022-08-26T09:15:54.286Z,43.58
2022-08-26T09:17:35.752Z,43.83
2022-08-26T09:19:07.685Z,43.15
2022-08-26T09:20:34.089Z,42.78
2022-08-26T09:21:37.841Z,42.67
2022-08-26T09:22:44.240Z,42.98
2022-08-26T09:23:49.638Z,43.42
2022-08-26T09:24:53.139Z,43.08
2022-08-26T09:26:03.139Z,42.68
2022-08-26T09:27:07.415Z,41.79
2022-08-26T09:28:19.239Z,42.70
2022-08-26T09:29:28.023Z,41.13
2022-08-26T09:30:38.252Z,41.05
2022-08-26T09:31:41.691Z,43.57
2022-08-26T09:33:06.621Z,40.17
2022-08-26T09:34:28.063Z,39.44
2022-08-26T09:35:38.124Z,40.34
2022-08-26T09:36:45.100Z,39.70
2022-08-26T09:38:53.933Z,39.70
2022-08-26T09:40:23.637Z,40.67
2022-08-26T09:41:33.279Z,41.75
2022-08-26T09:42:36.252Z,41.26
2022-08-26T09:43:39.005Z,41.71
2022-08-26T09:45:08.581Z,40.35
2022-08-26T09:46:18.768Z,39.97
2022-08-26T09:47:30.423Z,39.57
2022-08-26T09:48:37.484Z,40.09
2022-08-26T09:49:46.148Z,40.41
2022-08-26T09:51:03.771Z,39.38
2022-08-26T09:52:23.751Z,39.51
2022-08-26T09:53:31.173Z,39.12
2022-08-26T09:54:34.886Z,38.92
2022-08-26T09:55:42.404Z,40.13
2022-08-26T09:56:46.663Z,39.37
2022-08-26T09:57:52.681Z,39.89
2022-08-26T09:58:57.411Z,39.77
2022-08-26T10:00:01.678Z,39.07
2022-08-26T10:01:08.772Z,39.71
2022-08-26T10:02:36.198Z,39.19
2022-08-26T10:03:40.138Z,38.74
2022-08-26T10:04:51.893Z,38.57
2022-08-26T10:06:03.628Z,38.92
2022-08-26T10:07:10.227Z,39.46
2022-08-26T10:08:42.082Z,40.42
2022-08-26T10:09:48.404Z,37.97
2022-08-26T10:10:57.770Z,38.19
2022-08-26T10:12:08.334Z,38.33
2022-08-26T10:13:18.259Z,37.96
2022-08-26T10:14:33.789Z,37.18
2022-08-26T10:15:53.113Z,37.37
2022-08-26T10:17:01.785Z,37.22
2022-08-26T10:18:14.577Z,38.04
2022-08-26T10:19:25.622Z,36.25
2022-08-26T10:21:12.771Z,36.22
2022-08-26T10:22:25.197Z,34.20
2022-08-26T10:23:32.695Z,34.32
2022-08-26T10:24:42.086Z,33.24
2022-08-26T10:25:55.220Z,34.94
2022-08-26T10:27:11.385Z,35.11
2022-08-26T10:28:30.953Z,34.10
2022-08-26T10:29:40.528Z,32.10
2022-08-26T10:30:51.504Z,33.61
2022-08-26T10:32:03.432Z,34.03
2022-08-26T10:33:13.598Z,35.15
2022-08-26T10:34:18.301Z,32.43
2022-08-26T10:35:24.570Z,32.59
2022-08-26T10:38:17.431Z,34.04
2022-08-26T10:39:26.892Z,36.39
2022-08-26T10:41:02.839Z,32.79
2022-08-26T10:42:28.853Z,33.77
2022-08-26T10:43:41.851Z,34.74
2022-08-26T10:44:48.500Z,31.70
2022-08-26T10:46:04.905Z,31.42
2022-08-26T10:47:16.995Z,30.90
2022-08-26T10:48:42.954Z,32.87
2022-08-26T10:49:49.738Z,33.14
2022-08-26T10:50:53.091Z,33.78
2022-08-26T10:51:58.732Z,31.93
2022-08-26T10:53:25.283Z,32.05
2022-08-26T10:54:43.619Z,31.89
2022-08-26T10:56:15.855Z,29.56
2022-08-26T10:57:48.343Z,28.72
2022-08-26T10:58:58.887Z,29.38
2022-08-26T11:00:41.521Z,28.38
2022-08-26T11:01:52.783Z,27.62
2022-08-26T11:03:03.522Z,28.29
2022-08-26T11:04:28.572Z,30.23
2022-08-26T11:05:31.633Z,31.98
2022-08-26T11:06:37.053Z,30.93
2022-08-26T11:07:46.299Z,29.88
2022-08-26T11:08:52.926Z,30.25
2022-08-26T11:09:56.727Z,30.42
2022-08-26T11:11:00.701Z,28.39
2022-08-26T11:12:09.976Z,28.15
2022-08-26T11:13:13.941Z,29.03
2022-08-26T11:14:41.119Z,30.35
2022-08-26T11:15:54.976Z,29.36
2022-08-26T11:16:59.138Z,27.11
2022-08-26T11:18:05.866Z,28.92
2022-08-26T11:19:12.034Z,28.68
2022-08-26T11:20:23.802Z,29.52
2022-08-26T11:21:49.535Z,31.18
2022-08-26T11:22:55.729Z,29.71
2022-08-26T11:23:58.612Z,29.65
2022-08-26T11:25:09.500Z,30.42
2022-08-26T11:26:30.052Z,26.03
2022-08-26T11:27:47.195Z,26.73
2022-08-26T11:28:54.318Z,27.89
2022-08-26T11:30:05.481Z,28.90
2022-08-26T11:31:10.763Z,28.61
2022-08-26T11:32:48.720Z,29.26
2022-08-26T11:33:57.399Z,27.36
2022-08-26T11:35:04.822Z,27.85
2022-08-26T11:36:12.205Z,27.48
2022-08-26T11:37:17.812Z,27.59
2022-08-26T11:38:28.772Z,26.80
2022-08-26T11:40:09.503Z,27.08
2022-08-26T11:41:22.426Z,25.64
2022-08-26T11:42:43.045Z,26.88
2022-08-26T11:43:49.540Z,27.16
2022-08-26T11:44:58.106Z,27.23
2022-08-26T11:46:06.184Z,28.04
2022-08-26T11:47:17.919Z,27.50
2022-08-26T11:48:30.831Z,26.40
2022-08-26T11:49:34.022Z,26.79
2022-08-26T11:50:37.692Z,28.22
2022-08-26T11:51:42.554Z,28.03
2022-08-26T11:53:02.426Z,29.78
2022-08-26T11:54:10.983Z,26.62
2022-08-26T11:55:15.335Z,27.39
2022-08-26T11:56:24.801Z,27.37
2022-08-26T11:57:29.867Z,28.20
2022-08-26T11:58:33.356Z,27.51
2022-08-26T11:59:41.028Z,27.86
2022-08-26T12:00:45.605Z,29.18
2022-08-26T12:01:51.092Z,28.71
2022-08-26T12:02:55.760Z,28.47
2022-08-26T12:04:04.198Z,28.43
2022-08-26T12:05:08.807Z,28.97
2022-08-26T12:06:29.027Z,29.81
2022-08-26T12:07:34.077Z,29.65
2022-08-26T12:08:44.340Z,29.16
2022-08-26T12:10:02.491Z,29.17
2022-08-26T12:11:09.781Z,28.92
2022-08-26T12:12:22.411Z,28.07
2022-08-26T12:13:26.637Z,29.33
2022-08-26T12:14:29.601Z,30.17
2022-08-26T12:15:35.179Z,29.94
2022-08-26T12:16:40.010Z,29.01
2022-08-26T12:17:44.720Z,28.47
2022-08-26T12:18:49.782Z,28.74
2022-08-26T12:19:52.741Z,28.57
2022-08-26T12:20:56.602Z,29.24
2022-08-26T12:22:15.823Z,28.60
2022-08-26T12:23:23.839Z,29.41
2022-08-26T12:24:26.953Z,28.71
2022-08-26T12:25:32.937Z,28.29
2022-08-26T12:26:39.869Z,28.74
2022-08-26T12:27:44.923Z,29.82
2022-08-26T12:28:55.137Z,29.04
2022-08-26T12:30:08.735Z,29.16
2022-08-26T12:31:11.803Z,30.67
2022-08-26T12:32:18.741Z,29.84
2022-08-26T12:33:23.318Z,28.47
2022-08-26T12:34:28.627Z,29.25
2022-08-26T12:35:33.783Z,29.67
2022-08-26T12:36:43.261Z,29.27
2022-08-26T12:37:53.546Z,29.15
2022-08-26T12:38:58.443Z,28.48
2022-08-26T12:40:40.273Z,29.17
2022-08-26T12:41:50.751Z,29.41
2022-08-26T12:42:54.269Z,29.02
2022-08-26T12:43:57.466Z,28.65
2022-08-26T12:45:04.334Z,30.43
2022-08-26T12:46:11.523Z,29.80
2022-08-26T12:47:41.799Z,29.22
2022-08-26T12:48:49.708Z,29.27
2022-08-26T12:50:07.274Z,29.44
2022-08-26T12:51:26.303Z,28.08
2022-08-26T12:52:31.758Z,28.81
2022-08-26T12:53:42.233Z,28.25
2022-08-26T12:54:59.684Z,28.18
2022-08-26T12:56:39.443Z,28.73
2022-08-26T12:57:42.403Z,30.00
2022-08-26T12:59:00.207Z,29.58
2022-08-26T13:00:29.517Z,29.90
2022-08-26T13:01:44.809Z,29.78
2022-08-26T13:02:48.028Z,29.55
2022-08-26T13:03:52.096Z,31.16
2022-08-26T13:05:00.935Z,29.53
2022-08-26T13:06:23.979Z,30.82
2022-08-26T13:07:27.338Z,31.58
2022-08-26T13:08:31.437Z,29.32
2022-08-26T13:09:36.720Z,27.99
2022-08-26T13:10:43.902Z,29.11
2022-08-26T13:11:46.896Z,30.37
2022-08-26T13:12:50.014Z,29.04
2022-08-26T13:13:59.375Z,29.03
2022-08-26T13:15:04.102Z,28.35
2022-08-26T13:16:08.015Z,27.12
2022-08-26T13:17:10.948Z,27.44
2022-08-26T13:18:13.820Z,26.99
2022-08-26T13:19:22.775Z,27.02
2022-08-26T13:20:25.824Z,28.11
2022-08-26T13:21:37.712Z,29.10
2022-08-26T13:22:44.213Z,27.74
2022-08-26T13:23:51.470Z,27.15
2022-08-26T13:24:56.890Z,28.81
2022-08-26T13:26:00.171Z,28.83
2022-08-26T13:27:05.484Z,28.57
2022-08-26T13:28:08.531Z,29.67
2022-08-26T13:29:12.765Z,28.75
2022-08-26T13:30:15.597Z,28.04
2022-08-26T13:31:20.762Z,28.04
2022-08-26T13:32:29.907Z,28.26
2022-08-26T13:33:33.424Z,28.33
2022-08-26T13:34:38.779Z,28.24
2022-08-26T13:35:41.784Z,28.05
2022-08-26T13:36:46.013Z,29.21
2022-08-26T13:37:48.897Z,28.68
2022-08-26T13:38:51.984Z,27.87
2022-08-26T13:39:55.983Z,28.73
2022-08-26T13:41:00.131Z,27.45
2022-08-26T13:42:03.078Z,28.32
2022-08-26T13:43:05.994Z,29.14
2022-08-26T13:44:09.704Z,29.82
2022-08-26T13:45:12.728Z,29.33
2022-08-26T13:46:16.399Z,28.46
2022-08-26T13:47:21.154Z,29.54
2022-08-26T13:48:24.182Z,29.81
2022-08-26T13:49:27.136Z,29.96
2022-08-26T13:50:30.171Z,29.85
2022-08-26T13:51:33.546Z,29.77
2022-08-26T13:52:36.492Z,29.41
2022-08-26T13:53:39.633Z,29.67
2022-08-26T13:54:44.982Z,27.23
2022-08-26T13:55:48.186Z,29.35
2022-08-26T13:56:51.960Z,29.81
2022-08-26T13:57:56.524Z,28.46
2022-08-26T13:59:01.188Z,28.45
2022-08-26T14:00:05.262Z,28.27
2022-08-26T14:01:09.413Z,28.25
2022-08-26T14:02:13.265Z,29.09
2022-08-26T14:03:16.330Z,27.81
2022-08-26T14:04:23.272Z,29.06
2022-08-26T14:05:31.757Z,29.49
2022-08-26T14:06:35.389Z,27.89
2022-08-26T14:07:38.645Z,27.94
2022-08-26T14:08:43.248Z,28.29
2022-08-26T14:09:47.527Z,27.62
2022-08-26T14:10:50.694Z,28.04
2022-08-26T14:11:54.912Z,28.59
2022-08-26T14:12:58.341Z,28.41
2022-08-26T14:14:01.517Z,29.21
2022-08-26T14:15:04.854Z,28.92
2022-08-26T14:16:10.927Z,29.04
2022-08-26T14:17:21.342Z,29.86
2022-08-26T14:18:32.285Z,28.56
2022-08-26T14:19:35.681Z,28.77
2022-08-26T14:20:39.691Z,29.46
2022-08-26T14:21:46.297Z,29.86
2022-08-26T14:23:12.535Z,29.92
2022-08-26T14:24:16.315Z,29.33
2022-08-26T14:25:19.477Z,30.15
2022-08-26T14:26:29.164Z,29.30
2022-08-26T14:27:35.181Z,28.89
2022-08-26T14:28:40.216Z,29.86
2022-08-26T14:29:47.270Z,30.68
2022-08-26T14:30:57.795Z,30.17